createdAt,value
2023-03-28T05:24:44.548Z,4.18
2023-03-28T05:27:17.330Z,3.88
2023-03-28T05:29:45.137Z,5.57
2023-03-28T05:32:12.923Z,4.20
2023-03-28T05:34:41.200Z,4.30
2023-03-28T05:37:08.798Z,4.00
2023-03-28T05:39:45.175Z,4.28
2023-03-28T05:42:12.826Z,3.88
2023-03-28T05:44:40.388Z,3.28
2023-03-28T05:47:16.673Z,3.53
2023-03-28T05:49:43.937Z,2.95
2023-03-28T05:52:11.246Z,3.55
2023-03-28T05:54:39.350Z,3.10
2023-03-28T05:57:06.387Z,3.50
2023-03-28T05:59:33.130Z,2.97
2023-03-28T06:02:01.439Z,3.05
2023-03-28T06:04:28.544Z,2.40
2023-03-28T06:06:56.090Z,2.78
2023-03-28T06:09:31.455Z,4.25
2023-03-28T06:11:59.833Z,2.97
2023-03-28T06:14:27.425Z,3.28
2023-03-28T06:16:56.697Z,3.28
2023-03-28T06:19:24.840Z,3.10
2023-03-28T06:21:54.180Z,3.28
2023-03-28T06:24:21.101Z,3.20
2023-03-28T06:26:48.031Z,3.53
2023-03-28T06:29:19.474Z,3.20
2023-03-28T06:31:48.166Z,3.00
2023-03-28T06:34:14.882Z,3.40
2023-03-28T06:36:52.176Z,3.08
2023-03-28T06:39:18.954Z,3.42
2023-03-28T06:41:46.004Z,3.47
2023-03-28T06:44:12.709Z,3.53
2023-03-28T06:47:04.902Z,3.70
2023-03-28T06:49:31.935Z,3.67
2023-03-28T06:52:17.472Z,3.60
2023-03-28T06:54:48.463Z,4.57
2023-03-28T06:57:16.494Z,4.05
2023-03-28T06:59:44.281Z,3.15
2023-03-28T07:02:17.952Z,3.85
2023-03-28T07:04:45.285Z,4.43
2023-03-28T07:07:12.022Z,3.90
2023-03-28T07:09:38.760Z,3.25
2023-03-28T07:12:09.449Z,3.30
2023-03-28T07:14:38.920Z,3.33
2023-03-28T07:17:05.837Z,4.07
2023-03-28T07:19:32.679Z,3.22
2023-03-28T07:21:59.569Z,3.85
2023-03-28T07:24:26.560Z,4.50
2023-03-28T07:29:36.210Z,4.60
2023-03-28T07:32:03.084Z,4.20
2023-03-28T07:34:30.222Z,3.55
2023-03-28T07:36:58.668Z,3.90
2023-03-28T07:39:48.936Z,3.80
2023-03-28T07:42:20.346Z,3.20
2023-03-28T07:44:47.273Z,3.67
2023-03-28T07:47:16.632Z,3.30
2023-03-28T07:49:43.301Z,3.10
2023-03-28T07:52:10.055Z,2.47
2023-03-28T07:54:37.307Z,3.20
2023-03-28T07:57:04.588Z,4.22
2023-03-28T07:59:52.200Z,3.17
2023-03-28T08:02:18.949Z,3.15
2023-03-28T08:04:45.925Z,3.17
2023-03-28T08:07:15.553Z,3.72
2023-03-28T08:09:44.385Z,3.03
2023-03-28T08:12:15.893Z,3.28
2023-03-28T08:14:42.758Z,3.33
2023-03-28T08:17:10.582Z,3.33
2023-03-28T08:19:37.348Z,3.58
2023-03-28T08:22:13.360Z,2.75
2023-03-28T08:24:52.138Z,2.50
2023-03-28T08:27:22.732Z,2.83
2023-03-28T08:29:53.247Z,2.65
2023-03-28T08:32:20.139Z,2.78
2023-03-28T08:34:47.202Z,3.20
2023-03-28T08:37:17.229Z,2.80
2023-03-28T08:39:47.344Z,2.47
2023-03-28T08:42:50.305Z,2.88
2023-03-28T08:45:55.595Z,2.78
2023-03-28T08:48:32.949Z,3.15
2023-03-28T08:51:21.820Z,3.17
2023-03-28T08:54:17.577Z,2.38
2023-03-28T08:56:57.075Z,2.20
2023-03-28T08:59:40.769Z,3.03
2023-03-28T09:02:21.976Z,3.00
2023-03-28T09:04:50.182Z,2.63
2023-03-28T09:07:32.865Z,2.70
2023-03-28T09:10:41.633Z,2.72
2023-03-28T09:13:20.326Z,2.67
2023-03-28T09:16:12.762Z,2.38
2023-03-28T09:19:21.535Z,2.17
2023-03-28T09:22:18.845Z,3.15
2023-03-28T09:25:21.852Z,2.83
2023-03-28T09:28:18.658Z,2.63
2023-03-28T09:30:49.605Z,2.17
2023-03-28T09:33:23.823Z,2.65
2023-03-28T09:35:52.499Z,2.40
2023-03-28T09:38:25.115Z,2.65
2023-03-28T09:40:55.447Z,2.58
2023-03-28T09:43:42.016Z,2.33
2023-03-28T09:46:47.051Z,2.10
2023-03-28T09:49:28.989Z,2.70
2023-03-28T09:52:13.158Z,2.42
2023-03-28T09:54:41.259Z,2.13
2023-03-28T09:57:08.126Z,2.15
2023-03-28T10:00:07.884Z,1.90
2023-03-28T10:02:54.529Z,2.60
2023-03-28T10:05:36.808Z,1.90
2023-03-28T10:08:23.554Z,1.67
2023-03-28T10:11:12.277Z,2.10
2023-03-28T10:13:47.219Z,1.33
2023-03-28T10:16:18.212Z,1.80
2023-03-28T10:18:54.819Z,2.05
2023-03-28T10:21:32.424Z,1.98
2023-03-28T10:24:12.948Z,2.00
2023-03-28T10:26:42.768Z,1.65
2023-03-28T10:29:13.700Z,1.95
2023-03-28T10:31:49.852Z,1.92
2023-03-28T10:34:34.140Z,1.63
2023-03-28T10:37:23.406Z,1.67
2023-03-28T10:40:28.002Z,1.55
2023-03-28T10:43:15.441Z,2.22
2023-03-28T10:45:54.487Z,1.98
2023-03-28T10:48:39.233Z,1.65
2023-03-28T10:51:22.197Z,1.67
2023-03-28T10:53:54.888Z,2.08
2023-03-28T10:56:30.702Z,1.60
2023-03-28T10:59:18.949Z,1.25
2023-03-28T11:02:09.091Z,1.65
2023-03-28T11:04:51.716Z,1.52
2023-03-28T11:07:32.538Z,1.80
2023-03-28T11:10:09.784Z,1.40
2023-03-28T11:13:29.156Z,1.50
2023-03-28T11:16:08.091Z,1.30
2023-03-28T11:18:46.595Z,1.30
2023-03-28T11:21:32.142Z,1.83
2023-03-28T11:24:23.649Z,1.52
2023-03-28T11:27:24.982Z,1.70
2023-03-28T11:30:25.963Z,1.27
2023-03-28T11:33:29.249Z,1.70
2023-03-28T11:36:08.592Z,1.55
2023-03-28T11:38:50.799Z,1.38
2023-03-28T11:41:21.984Z,1.45
2023-03-28T11:44:22.737Z,1.60
2023-03-28T11:46:57.765Z,1.52
2023-03-28T11:49:53.504Z,1.67
2023-03-28T11:52:54.771Z,1.35
2023-03-28T11:55:27.539Z,1.50
2023-03-28T11:58:05.225Z,1.90
2023-03-28T12:00:43.531Z,1.88
2023-03-28T12:03:29.069Z,1.60
2023-03-28T12:06:14.019Z,1.42
2023-03-28T12:08:47.592Z,1.85
2023-03-28T12:11:25.625Z,1.48
2023-03-28T12:14:11.650Z,1.85
2023-03-28T12:16:48.052Z,1.50
2023-03-28T12:19:28.268Z,2.00
2023-03-28T12:22:22.188Z,2.00
2023-03-28T12:25:05.780Z,1.73
2023-03-28T12:27:56.989Z,2.75
2023-03-28T12:30:40.440Z,1.83
2023-03-28T12:33:45.910Z,1.85
2023-03-28T12:36:41.152Z,2.28
2023-03-28T12:39:34.496Z,1.40
2023-03-28T12:42:09.209Z,1.55
2023-03-28T12:44:44.983Z,1.90
2023-03-28T12:47:18.774Z,1.40
2023-03-28T12:49:58.562Z,1.58
2023-03-28T12:52:38.140Z,2.10
2023-03-28T12:55:28.842Z,1.85
2023-03-28T12:58:20.212Z,1.98
2023-03-28T13:01:25.392Z,2.03
2023-03-28T13:04:41.900Z,2.28
2023-03-28T13:07:53.249Z,1.90
2023-03-28T13:10:24.159Z,2.00
2023-03-28T13:13:12.953Z,1.38
2023-03-28T13:16:05.762Z,1.90
2023-03-28T13:18:34.450Z,2.38
2023-03-28T13:21:04.266Z,1.85
2023-03-28T13:23:35.002Z,1.88
2023-03-28T13:26:05.422Z,1.58
2023-03-28T13:28:44.537Z,1.65
2023-03-28T13:31:21.818Z,1.52
2023-03-28T13:33:58.561Z,1.52
2023-03-28T13:39:24.080Z,2.05
2023-03-28T13:41:51.887Z,1.37
2023-03-28T13:44:34.171Z,1.38
2023-03-28T13:47:01.126Z,2.10
2023-03-28T13:49:30.937Z,1.75
2023-03-28T13:52:04.959Z,2.03
2023-03-28T13:54:32.184Z,1.67
2023-03-28T13:57:05.368Z,1.67
2023-03-28T13:59:35.875Z,1.55
2023-03-28T14:02:13.735Z,1.80
2023-03-28T14:04:40.734Z,1.85
2023-03-28T14:07:12.533Z,1.88
2023-03-28T14:09:39.336Z,2.03
2023-03-28T14:12:11.117Z,1.90
2023-03-28T14:14:51.488Z,2.30
2023-03-28T14:17:23.165Z,2.22
2023-03-28T14:19:53.719Z,2.22
2023-03-28T14:22:24.390Z,2.20
2023-03-28T14:24:54.043Z,2.67
2023-03-28T14:27:50.489Z,2.38
2023-03-28T14:30:29.761Z,2.67
2023-03-28T14:33:07.798Z,2.13
2023-03-28T14:35:36.508Z,2.22
2023-03-28T14:38:14.942Z,1.98
2023-03-28T14:40:43.729Z,2.13
2023-03-28T14:43:12.092Z,2.60
2023-03-28T14:45:48.819Z,2.20
2023-03-28T14:48:21.285Z,2.78
2023-03-28T14:50:50.744Z,2.40
2023-03-28T14:53:24.216Z,2.05
2023-03-28T14:55:54.429Z,2.42
2023-03-28T14:58:23.995Z,2.80
2023-03-28T15:00:55.085Z,2.08
2023-03-28T15:03:34.952Z,2.38
2023-03-28T15:06:02.372Z,1.70
2023-03-28T15:08:35.913Z,2.30
2023-03-28T15:11:10.584Z,2.45
2023-03-28T15:13:39.571Z,2.08
2023-03-28T15:16:08.476Z,2.75
2023-03-28T15:18:47.407Z,2.30
2023-03-28T15:21:15.034Z,2.67
2023-03-28T15:23:49.313Z,2.65
2023-03-28T15:26:25.437Z,1.90
2023-03-28T15:28:54.073Z,2.72
2023-03-28T15:31:22.078Z,1.95
2023-03-28T15:33:51.407Z,2.03
2023-03-28T15:36:47.621Z,2.10
2023-03-28T15:39:24.546Z,1.75
2023-03-28T15:44:33.048Z,2.13
2023-03-28T15:47:13.074Z,2.33
2023-03-28T15:49:39.984Z,2.10
2023-03-28T15:52:19.601Z,2.38
2023-03-28T15:54:52.106Z,2.17
2023-03-28T15:57:22.555Z,2.72
2023-03-28T15:59:51.638Z,2.42
2023-03-28T16:02:31.452Z,2.30
2023-03-28T16:05:10.501Z,2.50
2023-03-28T16:07:48.933Z,2.33
2023-03-28T16:10:18.774Z,2.47
2023-03-28T16:13:05.823Z,2.30
2023-03-28T16:15:55.577Z,2.97
2023-03-28T16:18:34.885Z,2.10
2023-03-28T16:21:03.864Z,2.15
2023-03-28T16:23:31.056Z,1.80
2023-03-28T16:25:58.050Z,1.98
2023-03-28T16:28:24.830Z,1.92
2023-03-28T16:30:52.921Z,2.25
2023-03-28T16:33:19.726Z,4.72
2023-03-28T16:35:46.517Z,2.25
2023-03-28T16:38:13.320Z,2.10
2023-03-28T16:40:40.664Z,3.33
2023-03-28T16:43:08.037Z,2.90
2023-03-28T16:45:35.417Z,2.60
2023-03-28T16:48:02.252Z,2.28
2023-03-28T16:50:30.067Z,1.90
2023-03-28T16:52:56.872Z,2.15
2023-03-28T16:55:23.850Z,2.47
2023-03-28T16:57:50.640Z,2.55
2023-03-28T17:00:24.395Z,2.42
2023-03-28T17:02:51.264Z,3.13
2023-03-28T17:05:19.193Z,2.20
2023-03-28T17:07:46.117Z,2.13
2023-03-28T17:10:12.875Z,2.00
2023-03-28T17:12:39.624Z,2.50
2023-03-28T17:15:08.463Z,2.50
2023-03-28T17:17:35.688Z,2.90
2023-03-28T17:20:02.493Z,2.83
2023-03-28T17:22:29.320Z,2.15
2023-03-28T17:25:01.472Z,4.43
2023-03-28T17:27:28.469Z,3.97
2023-03-28T17:29:55.530Z,4.63
2023-03-28T17:32:22.657Z,4.95
2023-03-28T17:34:49.624Z,5.15
2023-03-28T17:37:16.566Z,4.38
2023-03-28T17:39:43.353Z,3.72
2023-03-28T17:42:10.125Z,5.47
2023-03-28T17:44:36.827Z,4.50
2023-03-28T17:47:04.502Z,5.55
2023-03-28T17:49:31.386Z,6.70
2023-03-28T17:51:58.745Z,11.52
2023-03-28T17:54:26.214Z,15.27
2023-03-28T17:56:53.851Z,14.32
2023-03-28T17:59:22.195Z,6.68
2023-03-28T18:01:49.064Z,4.53
